Time;durP1;ratioP1;P1;durP2;ratioP2;P2;SDS_P1;SDS_P2;PMS_P1;PMS_P2;Temp;Humidity;BMP_temperature;BMP_pressure;BME280_temperature;BME280_humidity;BME280_pressure;Samples;Min_cycle;Max_cycle;Signal;HPM_P1;HPM_P2
2021/08/14 00:01:26;;;;;;;16.95;3.95;;;16.00;98.00;;;;;;2616072;47;20488;-83
2021/08/14 00:03:55;;;;;;;13.18;4.85;;;16.00;98.10;;;;;;2616464;47;20022;-82
2021/08/14 00:06:21;;;;;;;11.05;3.92;;;15.90;97.90;;;;;;2616249;46;20022;-83
2021/08/14 00:08:47;;;;;;;12.05;4.07;;;15.90;98.10;;;;;;2617252;39;20316;-83
2021/08/14 00:11:13;;;;;;;17.48;4.97;;;15.90;98.20;;;;;;2616733;46;20022;-84
2021/08/14 00:13:39;;;;;;;16.55;5.18;;;15.90;98.20;;;;;;2616740;46;20029;-83
2021/08/14 00:16:05;;;;;;;10.98;4.45;;;15.90;98.10;;;;;;2616268;46;20030;-83
2021/08/14 00:18:34;;;;;;;17.77;5.95;;;15.90;98.20;;;;;;2616729;46;20034;-85
2021/08/14 00:21:00;;;;;;;15.55;4.70;;;15.90;98.30;;;;;;2616515;39;20132;-83
2021/08/14 00:23:25;;;;;;;16.15;4.72;;;15.90;98.20;;;;;;2616266;46;20023;-82
2021/08/14 00:25:51;;;;;;;14.88;5.80;;;15.90;98.20;;;;;;2615949;47;20030;-83
2021/08/14 00:28:17;;;;;;;17.83;5.97;;;15.90;98.20;;;;;;2616383;46;20023;-82
2021/08/14 00:30:43;;;;;;;13.77;5.25;;;15.90;98.30;;;;;;2616598;47;20018;-83
2021/08/14 00:33:09;;;;;;;10.93;4.40;;;15.80;98.30;;;;;;2615258;47;20030;-83
2021/08/14 00:35:37;;;;;;;20.73;6.15;;;15.80;98.40;;;;;;2615585;47;20134;-82
2021/08/14 00:38:03;;;;;;;20.40;5.72;;;15.80;98.40;;;;;;2616798;47;20022;-83
2021/08/14 00:40:29;;;;;;;18.42;4.82;;;15.80;98.50;;;;;;2615921;47;20051;-84
2021/08/14 00:42:55;;;;;;;12.80;4.30;;;15.80;98.50;;;;;;2616564;47;20026;-81
2021/08/14 00:45:21;;;;;;;15.18;4.63;;;15.70;98.40;;;;;;2616922;54;20515;-83
2021/08/14 00:47:47;;;;;;;11.95;5.00;;;15.70;98.60;;;;;;2616784;47;20106;-83
2021/08/14 00:50:13;;;;;;;13.27;4.55;;;15.70;98.60;;;;;;2615878;47;20819;-81
2021/08/14 00:52:42;;;;;;;17.02;5.53;;;15.70;98.60;;;;;;2616501;47;20022;-82
2021/08/14 00:55:08;;;;;;;17.75;6.15;;;15.70;98.60;;;;;;2615715;47;20022;-83
2021/08/14 00:57:35;;;;;;;16.50;5.10;;;15.70;98.60;;;;;;2615787;39;20351;-83
2021/08/14 01:00:01;;;;;;;14.90;3.85;;;15.70;98.60;;;;;;2617537;39;20352;-83
2021/08/14 01:02:28;;;;;;;17.55;5.95;;;15.70;98.70;;;;;;2616186;47;20459;-85
2021/08/14 01:04:54;;;;;;;17.10;6.40;;;15.70;98.80;;;;;;2616564;47;20067;-84
2021/08/14 01:07:20;;;;;;;20.67;6.45;;;15.60;98.80;;;;;;2615931;47;20070;-83
2021/08/14 01:09:46;;;;;;;14.23;4.75;;;15.70;98.70;;;;;;2616239;47;20460;-84
2021/08/14 01:12:15;;;;;;;14.70;4.65;;;15.70;98.80;;;;;;2615884;47;20494;-84
2021/08/14 01:14:43;;;;;;;13.18;5.70;;;15.70;98.80;;;;;;2616361;47;20118;-83
2021/08/14 01:17:10;;;;;;;25.75;6.18;;;15.70;98.90;;;;;;2615940;47;20022;-85
2021/08/14 01:19:35;;;;;;;18.45;6.38;;;15.60;98.80;;;;;;2615844;47;20022;-83
2021/08/14 01:22:03;;;;;;;14.57;5.07;;;15.70;99.00;;;;;;2615994;54;20042;-84
2021/08/14 01:24:34;;;;;;;16.20;6.10;;;15.60;99.00;;;;;;2616022;54;20023;-83
2021/08/14 01:26:59;;;;;;;21.63;5.28;;;15.60;99.00;;;;;;2615766;47;20022;-79
2021/08/14 01:29:25;;;;;;;18.25;5.78;;;15.60;99.00;;;;;;2616093;47;20029;-83
2021/08/14 01:31:51;;;;;;;11.98;4.53;;;15.60;99.00;;;;;;2616220;39;20385;-82
2021/08/14 01:34:19;;;;;;;14.00;5.32;;;15.60;99.00;;;;;;2616433;47;20080;-83
2021/08/14 01:36:50;;;;;;;16.23;6.07;;;15.50;99.00;;;;;;2615909;47;20022;-83
2021/08/14 01:39:16;;;;;;;14.73;5.35;;;15.50;99.20;;;;;;2615941;47;20038;-81
2021/08/14 01:41:59;;;;;;;17.40;5.38;;;15.50;99.00;;;;;;2616437;47;20029;-80
2021/08/14 01:44:27;;;;;;;10.77;4.65;;;15.50;99.30;;;;;;2616721;47;20061;-81
2021/08/14 01:46:53;;;;;;;17.95;5.63;;;15.50;99.00;;;;;;2616309;54;20022;-83
2021/08/14 01:49:20;;;;;;;12.23;5.13;;;15.40;99.00;;;;;;2616118;47;20029;-83
2021/08/14 01:51:47;;;;;;;12.30;5.10;;;15.40;99.00;;;;;;2616590;47;20050;-82
2021/08/14 01:54:16;;;;;;;15.15;6.35;;;15.40;99.00;;;;;;2615762;47;20028;-83
2021/08/14 01:56:43;;;;;;;13.82;5.28;;;15.40;99.00;;;;;;2616238;47;20022;-83
2021/08/14 01:59:10;;;;;;;14.00;6.07;;;15.40;99.20;;;;;;2616527;47;20064;-85
2021/08/14 02:01:36;;;;;;;12.73;4.70;;;15.40;99.10;;;;;;2616380;47;20050;-81
2021/08/14 02:04:02;;;;;;;11.57;4.90;;;15.40;99.10;;;;;;2616418;54;20022;-80
2021/08/14 02:06:29;;;;;;;12.98;5.32;;;15.40;99.20;;;;;;2617136;39;20317;-83
2021/08/14 02:08:56;;;;;;;16.92;6.05;;;15.40;99.20;;;;;;2616739;47;20030;-84
2021/08/14 02:11:25;;;;;;;16.90;5.28;;;15.40;99.10;;;;;;2616313;47;20023;-84
2021/08/14 02:13:52;;;;;;;19.33;6.25;;;15.40;99.20;;;;;;2616611;39;20329;-83
2021/08/14 02:16:19;;;;;;;16.42;6.93;;;15.30;99.20;;;;;;2615873;47;20050;-80
2021/08/14 02:18:45;;;;;;;13.88;5.25;;;15.30;99.10;;;;;;2616227;47;20022;-81
2021/08/14 02:21:11;;;;;;;20.45;6.65;;;15.30;99.20;;;;;;2616901;47;20102;-84
2021/08/14 02:23:38;;;;;;;10.20;5.25;;;15.30;99.40;;;;;;2616405;46;20034;-82
2021/08/14 02:26:05;;;;;;;13.80;5.93;;;15.40;99.40;;;;;;2616254;47;20615;-80
2021/08/14 02:28:31;;;;;;;11.18;5.97;;;15.30;99.30;;;;;;2617435;46;20027;-83
2021/08/14 02:30:58;;;;;;;14.77;6.60;;;15.30;99.30;;;;;;2616959;47;20467;-84
2021/08/14 02:33:24;;;;;;;14.85;5.50;;;15.30;99.50;;;;;;2616525;46;20026;-81
2021/08/14 02:35:52;;;;;;;14.30;5.55;;;15.30;99.50;;;;;;2616370;46;20114;-85
2021/08/14 02:38:18;;;;;;;14.85;5.70;;;15.30;99.60;;;;;;2617340;46;20030;-83
2021/08/14 02:40:48;;;;;;;14.57;6.20;;;15.40;99.60;;;;;;2616407;46;20026;-83
2021/08/14 02:43:15;;;;;;;12.70;5.30;;;15.40;99.60;;;;;;2617059;46;20126;-84
2021/08/14 02:45:42;;;;;;;10.93;5.82;;;15.40;99.70;;;;;;2616653;46;20027;-83
2021/08/14 02:48:08;;;;;;;13.70;6.60;;;15.40;99.60;;;;;;2617294;46;20022;-83
2021/08/14 02:50:34;;;;;;;22.33;7.63;;;15.40;99.70;;;;;;2617249;47;20038;-84
2021/08/14 02:53:00;;;;;;;18.08;7.18;;;15.40;99.70;;;;;;2616521;47;20022;-82
2021/08/14 02:55:28;;;;;;;11.15;5.53;;;15.40;99.80;;;;;;2616307;47;20030;-83
2021/08/14 02:57:54;;;;;;;17.98;6.57;;;15.40;99.70;;;;;;2615297;47;20030;-83
2021/08/14 03:00:20;;;;;;;15.45;6.30;;;15.40;99.80;;;;;;2616671;54;20030;-83
2021/08/14 03:02:46;;;;;;;21.52;7.28;;;15.40;99.80;;;;;;2616024;47;20459;-84
2021/08/14 03:05:12;;;;;;;15.07;5.82;;;15.40;99.90;;;;;;2616581;46;20029;-81
2021/08/14 03:07:38;;;;;;;13.80;7.20;;;15.40;99.90;;;;;;2616580;54;20642;-83
2021/08/14 03:10:05;;;;;;;21.58;7.43;;;15.40;99.90;;;;;;2616631;46;20125;-82
2021/08/14 03:12:34;;;;;;;21.10;5.93;;;15.40;99.90;;;;;;2616600;46;20023;-84
2021/08/14 03:14:59;;;;;;;13.70;6.15;;;15.40;99.90;;;;;;2616928;46;20050;-84
2021/08/14 03:17:25;;;;;;;15.98;6.53;;;15.50;99.90;;;;;;2616095;46;20027;-82
2021/08/14 03:19:51;;;;;;;17.95;7.35;;;15.40;99.90;;;;;;2615960;47;20532;-84
2021/08/14 03:22:17;;;;;;;22.15;6.85;;;15.50;99.90;;;;;;2615909;46;20029;-82
2021/08/14 03:24:43;;;;;;;14.75;5.97;;;15.50;99.90;;;;;;2617081;39;20250;-84
2021/08/14 03:27:09;;;;;;;24.00;6.18;;;15.50;99.90;;;;;;2615892;54;20027;-84
2021/08/14 03:29:35;;;;;;;13.40;6.22;;;15.50;99.90;;;;;;2616013;47;20029;-84
2021/08/14 03:32:00;;;;;;;15.52;5.90;;;15.50;99.90;;;;;;2616441;46;20022;-82
2021/08/14 03:34:26;;;;;;;12.93;5.40;;;15.50;99.90;;;;;;2616900;46;20033;-82
2021/08/14 03:36:52;;;;;;;16.30;6.70;;;15.50;99.90;;;;;;2616028;46;20073;-84
2021/08/14 03:39:18;;;;;;;16.13;6.32;;;15.50;99.90;;;;;;2616440;46;20030;-81
2021/08/14 03:41:44;;;;;;;14.23;6.38;;;15.50;99.90;;;;;;2616504;47;20634;-83
2021/08/14 03:44:10;;;;;;;18.30;5.35;;;15.50;99.90;;;;;;2616756;47;20023;-84
2021/08/14 03:46:36;;;;;;;15.38;6.15;;;15.50;99.90;;;;;;2616072;46;20040;-83
2021/08/14 03:49:02;;;;;;;19.30;6.78;;;15.50;99.90;;;;;;2616256;47;20547;-84
2021/08/14 03:51:29;;;;;;;13.18;6.00;;;15.50;99.90;;;;;;2616729;47;20511;-84
2021/08/14 03:53:55;;;;;;;20.42;7.25;;;15.50;99.90;;;;;;2616833;54;20864;-84
2021/08/14 03:56:23;;;;;;;15.15;6.18;;;15.50;99.90;;;;;;2616752;46;20022;-84
2021/08/14 03:58:49;;;;;;;16.52;6.32;;;15.50;99.90;;;;;;2616033;47;20031;-85
2021/08/14 04:01:14;;;;;;;18.50;6.57;;;15.50;99.90;;;;;;2616247;54;20142;-85
2021/08/14 04:03:40;;;;;;;17.98;7.18;;;15.50;99.90;;;;;;2616340;47;20030;-81
2021/08/14 04:06:06;;;;;;;18.95;6.50;;;15.50;99.90;;;;;;2616683;47;20053;-83
2021/08/14 04:08:32;;;;;;;23.23;7.68;;;15.50;99.90;;;;;;2616314;47;20050;-82
2021/08/14 04:10:57;;;;;;;24.80;7.32;;;15.50;99.90;;;;;;2616892;46;20026;-84
2021/08/14 04:13:23;;;;;;;21.33;6.85;;;15.50;99.90;;;;;;2617219;46;20081;-84
2021/08/14 04:15:49;;;;;;;17.50;6.90;;;15.50;99.90;;;;;;2616359;46;20053;-83
2021/08/14 04:18:15;;;;;;;23.17;6.85;;;15.50;99.90;;;;;;2616707;46;20022;-84
2021/08/14 04:20:41;;;;;;;23.55;8.38;;;15.50;99.90;;;;;;2616633;47;20022;-80
2021/08/14 04:23:07;;;;;;;11.20;6.80;;;15.50;99.90;;;;;;2616371;47;20029;-84
2021/08/14 04:25:33;;;;;;;19.15;7.25;;;15.50;99.90;;;;;;2616464;47;20061;-83
2021/08/14 04:27:59;;;;;;;24.02;8.88;;;15.50;99.90;;;;;;2616242;47;20029;-82
2021/08/14 04:30:25;;;;;;;23.65;7.70;;;15.50;99.90;;;;;;2616832;54;20030;-85
2021/08/14 04:32:51;;;;;;;14.40;6.63;;;15.50;99.90;;;;;;2616742;47;20045;-83
2021/08/14 04:35:17;;;;;;;17.42;6.63;;;15.50;99.90;;;;;;2617064;46;20027;-82
2021/08/14 04:37:43;;;;;;;18.33;7.60;;;15.50;99.90;;;;;;2616409;46;20022;-81
2021/08/14 04:40:14;;;;;;;22.60;7.32;;;15.50;99.90;;;;;;2617272;46;20046;-82
2021/08/14 04:42:40;;;;;;;17.55;6.32;;;15.50;99.90;;;;;;2615594;47;20030;-80
2021/08/14 04:45:06;;;;;;;22.83;8.07;;;15.50;99.90;;;;;;2616181;47;20030;-82
2021/08/14 04:47:40;;;;;;;21.42;7.47;;;15.60;99.90;;;;;;2616685;46;20022;-84
2021/08/14 04:50:07;;;;;;;17.02;7.07;;;15.60;99.90;;;;;;2616768;54;20027;-82
2021/08/14 04:52:33;;;;;;;18.80;6.68;;;15.50;99.90;;;;;;2615554;54;20126;-84
2021/08/14 04:54:59;;;;;;;15.32;7.50;;;15.50;99.90;;;;;;2615966;47;20033;-84
2021/08/14 04:57:27;;;;;;;26.15;7.05;;;15.60;99.90;;;;;;2616605;46;20022;-81
2021/08/14 04:59:53;;;;;;;20.10;7.30;;;15.60;99.90;;;;;;2615833;47;20022;-82
2021/08/14 05:02:21;;;;;;;23.40;8.63;;;15.60;99.90;;;;;;2616392;39;20380;-79
2021/08/14 05:04:49;;;;;;;23.38;8.75;;;15.60;99.90;;;;;;2617137;39;20120;-81
2021/08/14 05:07:15;;;;;;;21.20;6.70;;;15.60;99.90;;;;;;2615939;47;20022;-83
2021/08/14 05:09:43;;;;;;;20.63;7.25;;;15.60;99.90;;;;;;2615748;47;20683;-83
2021/08/14 05:12:09;;;;;;;25.05;7.65;;;15.60;99.90;;;;;;2615863;47;20033;-82
2021/08/14 05:14:36;;;;;;;14.23;6.53;;;15.70;99.90;;;;;;2615595;54;20065;-84
2021/08/14 05:17:03;;;;;;;21.75;7.45;;;15.70;99.90;;;;;;2615689;47;20165;-79
2021/08/14 05:19:35;;;;;;;19.87;7.63;;;15.70;99.90;;;;;;2616566;47;20026;-80
2021/08/14 05:22:01;;;;;;;24.02;8.07;;;15.80;99.90;;;;;;2616545;47;20031;-84
2021/08/14 05:24:27;;;;;;;20.75;8.48;;;15.80;99.90;;;;;;2616946;47;20731;-83
2021/08/14 05:26:53;;;;;;;21.05;8.65;;;15.80;99.90;;;;;;2616210;47;20030;-84
2021/08/14 05:29:19;;;;;;;17.05;6.65;;;15.80;99.90;;;;;;2616033;47;20023;-82
2021/08/14 05:31:45;;;;;;;20.02;7.75;;;15.90;99.90;;;;;;2616727;39;20412;-83
2021/08/14 05:34:11;;;;;;;19.92;7.20;;;15.90;99.90;;;;;;2615936;47;20027;-82
2021/08/14 05:36:38;;;;;;;16.33;6.57;;;15.90;99.90;;;;;;2615888;47;20110;-79
2021/08/14 05:39:04;;;;;;;20.70;7.72;;;16.00;99.90;;;;;;2615949;47;20034;-82
2021/08/14 05:41:39;;;;;;;23.02;7.97;;;16.00;99.90;;;;;;2615873;47;20022;-83
2021/08/14 05:44:07;;;;;;;21.15;7.88;;;16.00;99.90;;;;;;2615824;47;20029;-82
2021/08/14 05:46:33;;;;;;;18.10;6.65;;;16.00;99.90;;;;;;2615602;47;20705;-83
2021/08/14 05:48:59;;;;;;;24.17;8.30;;;16.10;99.90;;;;;;2616662;39;20395;-83
2021/08/14 05:51:25;;;;;;;20.63;7.50;;;16.10;99.90;;;;;;2615730;47;20031;-84
2021/08/14 05:53:51;;;;;;;20.42;7.63;;;16.20;99.90;;;;;;2615801;54;20030;-82
2021/08/14 05:56:18;;;;;;;26.63;7.95;;;16.20;99.90;;;;;;2616723;46;20038;-84
2021/08/14 05:58:46;;;;;;;20.58;7.97;;;16.30;99.90;;;;;;2617170;46;20073;-83
2021/08/14 06:01:12;;;;;;;19.17;7.07;;;16.30;99.90;;;;;;2616661;46;20023;-81
2021/08/14 06:03:38;;;;;;;29.00;9.30;;;16.30;99.90;;;;;;2616378;46;20022;-84
2021/08/14 06:06:04;;;;;;;17.85;7.10;;;16.40;99.90;;;;;;2616504;46;20114;-81
2021/08/14 06:08:33;;;;;;;21.17;6.72;;;16.50;99.90;;;;;;2617350;46;20075;-80
2021/08/14 06:10:59;;;;;;;14.82;6.30;;;16.50;99.90;;;;;;2616420;54;20050;-82
2021/08/14 06:13:25;;;;;;;20.75;7.53;;;16.50;99.90;;;;;;2617048;47;20026;-83
2021/08/14 06:15:51;;;;;;;27.38;7.80;;;16.60;99.90;;;;;;2616119;46;20022;-81
2021/08/14 06:18:16;;;;;;;27.88;6.78;;;16.60;99.90;;;;;;2616760;46;20049;-84
2021/08/14 06:20:44;;;;;;;24.15;8.73;;;16.70;99.90;;;;;;2616339;47;20027;-85
2021/08/14 06:23:10;;;;;;;23.05;8.55;;;16.70;99.90;;;;;;2616245;54;20129;-81
2021/08/14 06:25:36;;;;;;;23.00;8.32;;;16.80;99.90;;;;;;2616695;54;20077;-83
2021/08/14 06:28:06;;;;;;;23.65;7.38;;;17.00;99.90;;;;;;2616870;46;20046;-83
2021/08/14 06:30:40;;;;;;;15.82;7.28;;;17.10;99.90;;;;;;2617884;31;20392;-83
2021/08/14 06:33:06;;;;;;;24.92;7.32;;;17.20;99.90;;;;;;2616630;46;20026;-77
2021/08/14 06:35:33;;;;;;;20.77;7.05;;;17.30;99.90;;;;;;2616360;46;20030;-82
2021/08/14 06:38:00;;;;;;;21.50;7.85;;;17.40;99.90;;;;;;2616366;47;20122;-81
2021/08/14 06:40:26;;;;;;;26.02;7.95;;;17.40;99.90;;;;;;2616884;46;20141;-80
2021/08/14 06:42:52;;;;;;;21.55;6.75;;;17.40;99.90;;;;;;2616231;46;20041;-80
2021/08/14 06:45:18;;;;;;;20.63;7.88;;;17.50;99.90;;;;;;2616860;46;20029;-85
2021/08/14 06:47:44;;;;;;;27.63;9.57;;;17.50;99.90;;;;;;2616604;47;20046;-81
2021/08/14 06:50:10;;;;;;;29.27;8.05;;;17.50;99.90;;;;;;2616406;54;20039;-78
2021/08/14 06:52:36;;;;;;;18.00;6.50;;;17.50;99.90;;;;;;2617472;39;20339;-82
2021/08/14 06:55:06;;;;;;;21.40;8.27;;;17.50;99.90;;;;;;2616236;47;20515;-79
2021/08/14 06:57:32;;;;;;;17.38;7.03;;;17.60;99.90;;;;;;2616802;47;20022;-83
2021/08/14 07:00:04;;;;;;;18.95;8.05;;;17.60;99.90;;;;;;2617028;54;20057;-80
2021/08/14 07:02:34;;;;;;;22.83;7.85;;;17.70;99.90;;;;;;2616460;46;20494;-82
2021/08/14 07:05:01;;;;;;;18.30;6.93;;;17.80;99.90;;;;;;2616381;47;20030;-84
2021/08/14 07:07:27;;;;;;;19.13;7.20;;;17.80;99.90;;;;;;2616464;47;20031;-83
2021/08/14 07:09:53;;;;;;;23.02;8.05;;;17.90;99.90;;;;;;2616493;46;20064;-79
2021/08/14 07:12:18;;;;;;;16.95;7.75;;;18.00;99.90;;;;;;2617077;46;20022;-85
2021/08/14 07:14:44;;;;;;;16.20;7.13;;;18.10;99.90;;;;;;2616279;47;20022;-82
2021/08/14 07:17:10;;;;;;;18.13;6.65;;;18.20;99.90;;;;;;2616858;47;20029;-80
2021/08/14 07:19:36;;;;;;;24.30;7.90;;;18.30;99.90;;;;;;2616168;46;20023;-84
2021/08/14 07:22:02;;;;;;;15.80;6.25;;;18.30;99.90;;;;;;2616577;46;20587;-84
2021/08/14 07:24:28;;;;;;;18.40;8.32;;;18.40;99.90;;;;;;2616935;46;20022;-81
2021/08/14 07:26:53;;;;;;;21.90;7.00;;;18.50;99.90;;;;;;2617146;39;20496;-83
2021/08/14 07:29:19;;;;;;;13.82;6.25;;;18.60;99.90;;;;;;2617532;47;20459;-87
2021/08/14 07:31:45;;;;;;;17.80;6.65;;;18.70;99.90;;;;;;2617363;46;20022;-80
2021/08/14 07:34:11;;;;;;;23.05;6.47;;;18.80;99.90;;;;;;2617386;46;20054;-82
2021/08/14 07:36:37;;;;;;;14.90;7.13;;;18.80;99.90;;;;;;2617457;47;20056;-85
2021/08/14 07:39:04;;;;;;;19.33;6.65;;;18.80;99.90;;;;;;2616885;47;20035;-83
2021/08/14 07:41:30;;;;;;;22.20;6.85;;;18.80;99.90;;;;;;2616413;47;20030;-80
2021/08/14 07:43:56;;;;;;;17.33;6.85;;;18.90;99.90;;;;;;2616960;46;20022;-84
2021/08/14 07:46:22;;;;;;;17.45;7.28;;;18.90;99.90;;;;;;2616870;47;20455;-82
2021/08/14 07:48:47;;;;;;;21.25;6.07;;;18.90;99.90;;;;;;2616719;46;20077;-85
2021/08/14 07:51:13;;;;;;;15.00;6.75;;;19.00;99.90;;;;;;2615978;54;20039;-78
2021/08/14 07:53:39;;;;;;;18.50;6.35;;;19.00;99.90;;;;;;2616879;47;20054;-81
2021/08/14 07:56:05;;;;;;;16.77;5.95;;;19.00;99.90;;;;;;2616369;47;20034;-79
2021/08/14 07:58:35;;;;;;;16.08;5.80;;;19.00;99.90;;;;;;2616674;47;20061;-83
2021/08/14 08:01:03;;;;;;;17.17;5.88;;;19.00;99.90;;;;;;2615746;54;20022;-80
2021/08/14 08:03:29;;;;;;;14.23;5.68;;;19.00;99.90;;;;;;2612202;54;20057;-80
2021/08/14 08:05:55;;;;;;;35.38;6.70;;;19.00;99.90;;;;;;2615021;47;20035;-79
2021/08/14 08:08:20;;;;;;;23.92;6.53;;;19.00;99.90;;;;;;2614645;47;20030;-81
2021/08/14 08:10:47;;;;;;;21.52;6.18;;;19.00;99.90;;;;;;2616173;46;20035;-83
2021/08/14 08:13:13;;;;;;;19.67;6.00;;;19.00;99.90;;;;;;2615867;47;20031;-81
2021/08/14 08:15:39;;;;;;;22.10;5.63;;;19.00;99.90;;;;;;2615916;54;20051;-79
2021/08/14 08:18:05;;;;;;;16.27;5.25;;;19.00;99.90;;;;;;2617687;31;20405;-82
2021/08/14 08:20:31;;;;;;;23.50;5.85;;;19.10;99.90;;;;;;2617097;39;20440;-81
2021/08/14 08:22:56;;;;;;;17.45;5.20;;;19.10;99.90;;;;;;2616711;47;20022;-83
2021/08/14 08:25:22;;;;;;;15.55;5.15;;;19.10;99.90;;;;;;2615480;54;20022;-80
2021/08/14 08:27:50;;;;;;;16.80;5.10;;;19.10;99.90;;;;;;2616429;47;20030;-81
2021/08/14 08:30:18;;;;;;;19.88;5.38;;;19.10;99.90;;;;;;2616671;47;20141;-83
2021/08/14 08:32:44;;;;;;;14.05;5.07;;;19.20;99.90;;;;;;2616864;47;20023;-81
2021/08/14 08:35:11;;;;;;;14.48;4.93;;;19.30;99.90;;;;;;2616403;46;20022;-82
2021/08/14 08:37:38;;;;;;;10.27;3.90;;;19.40;99.90;;;;;;2615904;54;20711;-79
2021/08/14 08:40:06;;;;;;;16.58;5.20;;;19.40;99.90;;;;;;2615979;46;20031;-81
2021/08/14 08:42:32;;;;;;;15.30;4.72;;;19.50;99.90;;;;;;2616447;47;20126;-84
2021/08/14 08:44:58;;;;;;;17.63;5.97;;;19.50;99.90;;;;;;2615920;46;20022;-82
2021/08/14 08:47:28;;;;;;;20.35;4.72;;;19.60;99.90;;;;;;2616330;47;20137;-79
2021/08/14 08:49:57;;;;;;;12.80;4.20;;;19.60;99.90;;;;;;2616371;46;20023;-80
2021/08/14 08:52:23;;;;;;;14.73;4.72;;;19.60;99.90;;;;;;2616578;46;20029;-84
2021/08/14 08:54:50;;;;;;;12.50;5.22;;;19.70;99.90;;;;;;2616677;47;20022;-81
2021/08/14 08:57:17;;;;;;;16.83;5.30;;;19.70;99.80;;;;;;2616154;54;20491;-80
2021/08/14 08:59:47;;;;;;;12.05;4.07;;;19.70;99.90;;;;;;2616614;47;20104;-82
2021/08/14 09:02:30;;;;;;;15.43;3.75;;;19.80;99.70;;;;;;2616332;47;20030;-82
2021/08/14 09:05:13;;;;;;;11.10;3.55;;;19.80;99.20;;;;;;2615876;47;20031;-80
2021/08/14 09:07:41;;;;;;;18.40;3.92;;;19.80;99.20;;;;;;2616015;46;20034;-80
2021/08/14 09:10:10;;;;;;;12.82;3.75;;;19.80;99.40;;;;;;2615856;47;20041;-83
2021/08/14 09:12:41;;;;;;;15.57;4.15;;;19.90;99.30;;;;;;2616131;47;20038;-80
2021/08/14 09:15:28;;;;;;;9.18;3.17;;;19.90;99.30;;;;;;2615975;46;20030;-79
2021/08/14 09:18:03;;;;;;;10.35;3.45;;;20.00;99.00;;;;;;2616372;47;20118;-82
2021/08/14 09:20:30;;;;;;;10.93;2.60;;;20.00;99.00;;;;;;2616872;47;20030;-80
2021/08/14 09:23:03;;;;;;;10.45;3.10;;;20.10;98.90;;;;;;2616368;47;20043;-81
2021/08/14 09:25:50;;;;;;;7.75;2.72;;;20.20;98.90;;;;;;2615465;47;20130;-76
2021/08/14 09:28:18;;;;;;;13.50;3.80;;;20.20;97.60;;;;;;2616163;47;20022;-82
2021/08/14 09:31:04;;;;;;;11.23;3.50;;;20.30;98.80;;;;;;2617005;47;20022;-84
2021/08/14 09:33:37;;;;;;;8.07;2.25;;;20.50;98.30;;;;;;2616167;46;20022;-83
2021/08/14 09:36:05;;;;;;;13.35;4.20;;;20.50;98.40;;;;;;2617309;46;20029;-81
2021/08/14 09:38:42;;;;;;;14.65;3.90;;;20.60;98.10;;;;;;2617373;46;20022;-84
2021/08/14 09:41:10;;;;;;;11.10;2.55;;;20.70;97.70;;;;;;2617530;39;20555;-80
2021/08/14 09:43:37;;;;;;;9.00;2.65;;;20.70;98.20;;;;;;2617966;39;20355;-80
2021/08/14 09:46:03;;;;;;;8.80;3.55;;;20.80;98.00;;;;;;2617217;47;20023;-81
2021/08/14 09:48:31;;;;;;;11.18;3.88;;;20.90;97.90;;;;;;2616265;46;20521;-81
2021/08/14 09:50:57;;;;;;;8.65;2.00;;;21.00;97.80;;;;;;2616261;47;20057;-81
2021/08/14 09:53:24;;;;;;;12.15;3.10;;;21.00;97.40;;;;;;2617097;46;20034;-78
2021/08/14 09:56:09;;;;;;;9.43;1.92;;;21.20;97.40;;;;;;2616682;39;20398;-83
2021/08/14 09:58:40;;;;;;;9.32;3.17;;;21.30;96.10;;;;;;2617552;47;20030;-83
2021/08/14 10:01:07;;;;;;;7.35;2.40;;;21.50;96.80;;;;;;2617059;46;20030;-84
2021/08/14 10:03:36;;;;;;;9.00;2.00;;;21.50;96.40;;;;;;2616601;46;20023;-81
2021/08/14 10:06:03;;;;;;;8.88;2.03;;;21.50;96.20;;;;;;2617223;46;20030;-82
2021/08/14 10:08:29;;;;;;;10.65;3.05;;;21.40;96.00;;;;;;2616296;47;20030;-77
2021/08/14 10:10:56;;;;;;;5.88;1.63;;;21.30;95.80;;;;;;2616618;46;20022;-80
2021/08/14 10:13:23;;;;;;;8.15;2.05;;;21.30;96.00;;;;;;2616863;47;20861;-83
2021/08/14 10:15:50;;;;;;;9.73;2.67;;;21.20;95.80;;;;;;2616654;39;20290;-80
2021/08/14 10:18:17;;;;;;;14.13;3.72;;;21.10;96.00;;;;;;2617509;47;20460;-83
2021/08/14 10:20:47;;;;;;;8.32;2.08;;;21.20;96.30;;;;;;2617140;47;20126;-83
2021/08/14 10:23:25;;;;;;;16.27;4.47;;;21.10;96.00;;;;;;2616790;39;20368;-80
2021/08/14 10:26:03;;;;;;;10.30;2.85;;;21.20;96.00;;;;;;2617617;46;20029;-80
2021/08/14 10:28:53;;;;;;;12.57;3.63;;;21.20;95.70;;;;;;2617327;54;20026;-79
2021/08/14 10:31:44;;;;;;;7.70;2.80;;;21.20;94.60;;;;;;2616856;47;20022;-82
2021/08/14 10:34:13;;;;;;;7.90;2.67;;;21.20;95.00;;;;;;2616151;46;20030;-80
2021/08/14 10:36:40;;;;;;;5.70;2.28;;;21.20;95.90;;;;;;2617488;46;20029;-79
2021/08/14 10:39:21;;;;;;;10.95;2.80;;;21.30;96.10;;;;;;2616439;46;20022;-82
2021/08/14 10:41:50;;;;;;;14.40;3.15;;;21.20;95.20;;;;;;2618171;39;20555;-85
2021/08/14 10:44:38;;;;;;;13.75;3.58;;;21.20;95.80;;;;;;2618563;46;20031;-82
2021/08/14 10:47:06;;;;;;;10.15;2.60;;;21.10;95.50;;;;;;2618740;46;20022;-82
2021/08/14 10:49:34;;;;;;;12.40;2.83;;;21.10;96.10;;;;;;2621311;46;20038;-88
2021/08/14 10:52:00;;;;;;;13.02;3.00;;;21.10;96.20;;;;;;2619218;47;20061;-84
2021/08/14 10:54:29;;;;;;;8.82;2.92;;;21.10;96.30;;;;;;2621972;47;20122;-85
2021/08/14 10:56:59;;;;;;;10.18;3.67;;;21.10;96.20;;;;;;2622090;47;20658;-84
2021/08/14 10:59:37;;;;;;;12.27;3.80;;;21.20;96.30;;;;;;2617918;46;20022;-84
2021/08/14 11:02:09;;;;;;;15.65;5.43;;;21.30;95.80;;;;;;2616908;54;20026;-83
2021/08/14 11:04:39;;;;;;;13.57;3.63;;;21.40;96.00;;;;;;2618155;46;20030;-84
2021/08/14 11:07:20;;;;;;;15.02;3.72;;;21.40;96.20;;;;;;2619839;47;20753;-84
2021/08/14 11:09:48;;;;;;;10.20;3.13;;;21.40;95.50;;;;;;2621455;46;20129;-87
2021/08/14 11:12:37;;;;;;;12.02;2.92;;;21.50;96.30;;;;;;2618961;47;20053;-86
2021/08/14 11:15:22;;;;;;;8.93;2.70;;;21.50;95.70;;;;;;2617828;46;20064;-81
2021/08/14 11:17:57;;;;;;;15.02;3.63;;;21.50;95.40;;;;;;2617143;46;20046;-88
2021/08/14 11:20:23;;;;;;;17.77;3.75;;;21.60;96.30;;;;;;2623521;46;20027;-90
2021/08/14 11:22:54;;;;;;;10.93;3.03;;;21.70;96.20;;;;;;2623517;46;20676;-89
2021/08/14 11:25:31;;;;;;;18.35;4.20;;;21.70;96.10;;;;;;2619306;54;20034;-83
2021/08/14 11:28:01;;;;;;;12.02;3.20;;;21.90;96.20;;;;;;2616816;46;20030;-86
2021/08/14 11:30:29;;;;;;;10.18;2.90;;;22.00;96.30;;;;;;2617998;39;20391;-88
2021/08/14 11:32:55;;;;;;;11.43;3.42;;;22.20;96.10;;;;;;2618955;46;20026;-88
2021/08/14 11:35:23;;;;;;;12.98;3.60;;;22.30;95.40;;;;;;2616853;46;20121;-83
2021/08/14 11:37:54;;;;;;;10.93;3.22;;;22.50;95.30;;;;;;2618111;47;20041;-84
2021/08/14 11:40:23;;;;;;;13.35;4.50;;;22.40;94.90;;;;;;2620606;47;20149;-78
2021/08/14 11:43:00;;;;;;;8.52;2.55;;;22.40;95.00;;;;;;2618803;47;20034;-86
2021/08/14 11:45:28;;;;;;;6.30;2.03;;;22.40;94.70;;;;;;2621017;47;20035;-88
2021/08/14 11:47:58;;;;;;;10.27;3.45;;;22.50;95.00;;;;;;2618962;46;20053;-84
2021/08/14 11:50:24;;;;;;;9.48;2.00;;;22.70;94.70;;;;;;2617374;47;20033;-84
2021/08/14 11:52:50;;;;;;;6.78;2.72;;;22.80;94.40;;;;;;2616432;46;20471;-80
2021/08/14 11:55:16;;;;;;;8.57;2.03;;;22.90;93.90;;;;;;2616682;46;20022;-80
2021/08/14 11:57:42;;;;;;;7.80;1.77;;;23.00;92.60;;;;;;2617416;47;20057;-86
2021/08/14 12:00:18;;;;;;;7.32;2.40;;;23.20;93.60;;;;;;2616113;46;20054;-83
2021/08/14 12:02:48;;;;;;;5.82;1.83;;;23.40;91.90;;;;;;2617350;47;20030;-83
2021/08/14 12:05:23;;;;;;;6.95;1.60;;;23.50;93.70;;;;;;2616621;47;20026;-81
2021/08/14 12:07:49;;;;;;;5.40;1.35;;;23.70;93.10;;;;;;2617723;46;20037;-81
2021/08/14 12:10:15;;;;;;;4.90;1.00;;;23.80;93.30;;;;;;2617180;39;20356;-81
2021/08/14 12:12:41;;;;;;;2.60;0.70;;;23.90;92.80;;;;;;2617423;46;20029;-83
2021/08/14 12:15:11;;;;;;;9.02;1.83;;;24.10;91.00;;;;;;2617100;39;20120;-86
2021/08/14 12:17:44;;;;;;;4.63;1.90;;;24.20;91.90;;;;;;2617424;46;20054;-79
2021/08/14 12:20:12;;;;;;;4.38;0.80;;;24.30;90.00;;;;;;2616852;47;20034;-86
2021/08/14 12:22:42;;;;;;;6.10;1.23;;;24.30;91.70;;;;;;2618555;47;20041;-84
2021/08/14 12:25:24;;;;;;;4.95;1.50;;;24.30;91.00;;;;;;2618593;46;20030;-84
2021/08/14 12:27:50;;;;;;;4.53;1.63;;;24.10;85.90;;;;;;2618128;46;20038;-86
2021/08/14 12:30:32;;;;;;;2.88;1.05;;;23.90;90.60;;;;;;2619740;46;20471;-81
2021/08/14 12:32:58;;;;;;;3.03;1.08;;;23.70;89.20;;;;;;2619217;46;20035;-85
2021/08/14 12:35:25;;;;;;;5.28;1.85;;;23.70;91.10;;;;;;2624472;46;20034;-84
2021/08/14 12:37:51;;;;;;;4.72;1.35;;;23.80;91.50;;;;;;2619294;47;20041;-82
2021/08/14 12:40:22;;;;;;;6.45;1.95;;;24.00;91.40;;;;;;2616570;46;20035;-82
2021/08/14 12:42:48;;;;;;;4.95;1.10;;;24.10;88.10;;;;;;2616956;47;20030;-88